createdAt,value
2022-11-23T09:47:14.105Z,98172.41
2022-11-23T09:49:58.593Z,98165.75
2022-11-23T09:52:26.651Z,98155.44
2022-11-23T09:55:03.188Z,98148.47
2022-11-23T09:57:33.997Z,98151.78
2022-11-23T10:00:25.580Z,98143.03
2022-11-23T10:02:56.616Z,98140.59
2022-11-23T10:05:26.231Z,98134.06
2022-11-23T10:08:20.839Z,98140.25
2022-11-23T10:11:06.798Z,98133.91
2022-11-23T10:13:52.549Z,98141.88
2022-11-23T10:16:27.620Z,98140.03
2022-11-23T10:19:39.503Z,98141.88
2022-11-23T13:26:25.400Z,98089.22
2022-11-23T13:28:53.491Z,98088.06
2022-11-23T13:31:31.903Z,98083.22
2022-11-23T13:34:03.339Z,98085.63
2022-11-23T13:36:56.511Z,98087.25
2022-11-23T14:02:44.524Z,98082.50
2022-11-23T14:05:53.062Z,98081.00
2022-11-23T14:08:20.255Z,98080.63
2022-11-23T14:10:47.596Z,98083.78
2022-11-23T14:13:28.048Z,98081.06
2022-11-23T14:16:00.893Z,98085.41
2022-11-23T14:19:11.712Z,98076.50
2022-11-23T14:21:44.253Z,98086.38
2022-11-23T14:24:51.552Z,98093.16
2022-11-23T14:27:46.870Z,98083.28
2022-11-23T14:30:39.446Z,98095.91
2022-11-23T14:33:18.345Z,98098.00
2022-11-23T14:40:07.353Z,98100.78
2022-11-23T14:42:40.169Z,98112.44
2022-11-23T14:45:17.031Z,98115.56
2022-11-23T14:47:53.963Z,98114.16
2022-11-23T14:50:27.803Z,98116.81
2022-11-23T14:56:33.864Z,98118.16
2022-11-23T14:59:08.518Z,98112.44
2022-11-23T15:04:42.707Z,98119.38
2022-11-23T15:07:22.557Z,98115.53
2022-11-23T15:49:42.551Z,98144.50
2022-11-23T15:52:15.487Z,98139.97
2022-11-23T15:58:02.620Z,98144.44
